createdAt,value
2024-01-24T00:03:46.693Z,84.32
2024-01-24T00:08:54.141Z,84.19
2024-01-24T00:14:01.667Z,84.07
2024-01-24T00:19:09.237Z,83.90
2024-01-24T00:24:16.809Z,83.91
2024-01-24T00:29:24.559Z,83.95
2024-01-24T00:34:32.643Z,83.68
2024-01-24T00:39:41.201Z,83.76
2024-01-24T00:44:52.532Z,84.34
2024-01-24T00:49:59.633Z,84.64
2024-01-24T00:55:08.688Z,84.13
2024-01-24T01:00:18.359Z,84.36
2024-01-24T01:05:26.534Z,84.78
2024-01-24T01:10:33.895Z,85.11
2024-01-24T01:15:41.178Z,85.39
2024-01-24T01:20:48.529Z,85.22
2024-01-24T01:25:56.928Z,85.08
2024-01-24T01:31:04.819Z,85.79
2024-01-24T01:36:18.266Z,86.32
2024-01-24T01:41:32.407Z,86.31
2024-01-24T01:46:41.124Z,86.06
2024-01-24T01:51:49.115Z,85.92
2024-01-24T01:56:57.197Z,86.17
2024-01-24T02:02:06.661Z,86.28
2024-01-24T02:07:14.236Z,86.58
2024-01-24T02:12:22.319Z,86.48
2024-01-24T02:17:30.021Z,86.42
2024-01-24T02:22:37.412Z,86.28
2024-01-24T02:27:47.780Z,86.17
2024-01-24T02:32:55.617Z,86.26
2024-01-24T02:38:03.314Z,86.54
2024-01-24T02:43:11.441Z,86.77
2024-01-24T02:48:19.165Z,86.92
2024-01-24T02:53:26.392Z,86.99
2024-01-24T02:58:33.858Z,86.87
2024-01-24T03:03:43.645Z,86.83
2024-01-24T03:08:53.379Z,86.86
2024-01-24T03:14:00.518Z,86.57
2024-01-24T03:19:08.880Z,86.11
2024-01-24T03:24:16.498Z,85.88
2024-01-24T03:29:25.306Z,85.54
2024-01-24T03:40:14.676Z,84.77
2024-01-24T03:45:23.521Z,84.29
2024-01-24T03:50:30.698Z,83.45
2024-01-24T03:55:38.365Z,83.48
2024-01-24T04:00:45.912Z,83.82
2024-01-24T04:05:53.914Z,83.81
2024-01-24T04:11:01.291Z,83.69
2024-01-24T04:16:10.136Z,83.14
2024-01-24T04:21:17.477Z,82.81
2024-01-24T04:26:25.757Z,82.74
2024-01-24T04:31:33.494Z,82.61
2024-01-24T04:36:40.988Z,82.82
2024-01-24T04:41:50.636Z,82.62
2024-01-24T04:47:01.206Z,82.53
2024-01-24T04:52:09.443Z,82.35
2024-01-24T04:57:17.644Z,82.13
2024-01-24T05:02:25.327Z,81.44
2024-01-24T05:07:32.909Z,80.57
2024-01-24T05:12:40.295Z,80.19
2024-01-24T05:17:47.964Z,79.49
2024-01-24T05:22:55.793Z,78.98
2024-01-24T05:28:06.740Z,78.69
2024-01-24T05:33:14.174Z,78.54
2024-01-24T05:38:21.701Z,78.21
2024-01-24T05:43:29.310Z,78.04
2024-01-24T05:48:36.798Z,77.82
2024-01-24T05:53:45.584Z,77.82
2024-01-24T05:58:52.821Z,77.79
2024-01-24T06:04:00.355Z,77.65
2024-01-24T06:09:07.657Z,77.75
2024-01-24T06:14:15.284Z,77.75
2024-01-24T06:19:22.802Z,77.80
2024-01-24T06:24:33.040Z,77.62
2024-01-24T06:30:16.764Z,77.80
2024-01-24T06:35:13.005Z,78.26
2024-01-24T06:40:21.382Z,79.34
2024-01-24T06:45:29.005Z,80.37
2024-01-24T06:50:36.581Z,81.08
2024-01-24T06:55:45.969Z,82.33
2024-01-24T07:00:54.291Z,83.58
2024-01-24T07:06:02.003Z,84.31
2024-01-24T07:11:09.996Z,84.96
2024-01-24T07:16:18.341Z,85.29
2024-01-24T07:21:26.937Z,86.06
2024-01-24T07:26:36.666Z,86.52
2024-01-24T07:31:45.039Z,86.61
2024-01-24T07:36:52.471Z,86.68
2024-01-24T07:42:00.241Z,86.80
2024-01-24T07:47:07.842Z,86.63
2024-01-24T07:52:25.052Z,86.76
2024-01-24T07:57:39.181Z,86.80
2024-01-24T08:02:47.878Z,86.61
2024-01-24T08:07:58.456Z,86.74
2024-01-24T08:13:08.233Z,86.79
2024-01-24T08:18:17.358Z,86.10
2024-01-24T08:23:31.547Z,85.70
2024-01-24T08:28:46.355Z,85.95
2024-01-24T08:33:53.698Z,86.15
2024-01-24T08:39:01.521Z,86.01
2024-01-24T08:44:08.928Z,85.55
2024-01-24T08:49:16.821Z,85.48
2024-01-24T08:54:24.809Z,85.05
2024-01-24T08:59:33.899Z,84.88
2024-01-24T09:04:45.594Z,85.48
2024-01-24T09:09:54.042Z,85.93
2024-01-24T09:15:01.487Z,86.83
2024-01-24T09:20:18.946Z,87.84
2024-01-24T09:25:27.284Z,88.42
2024-01-24T09:30:34.869Z,88.78
2024-01-24T09:35:43.410Z,89.13
2024-01-24T09:40:51.619Z,89.42
2024-01-24T09:46:03.917Z,89.83
2024-01-24T09:51:13.362Z,89.90
2024-01-24T09:56:21.664Z,90.26
2024-01-24T10:01:33.097Z,91.40
2024-01-24T10:06:42.522Z,92.22
2024-01-24T10:11:49.841Z,93.31
2024-01-24T10:16:58.176Z,93.93
2024-01-24T10:22:09.390Z,94.66
2024-01-24T10:27:18.817Z,95.02
2024-01-24T10:32:26.652Z,95.91
2024-01-24T10:37:37.687Z,96.05
2024-01-24T10:42:47.245Z,96.77
2024-01-24T10:47:55.307Z,96.70
2024-01-24T10:53:04.180Z,97.43
2024-01-24T10:58:13.567Z,98.32
2024-01-24T11:03:21.321Z,98.63
2024-01-24T11:08:40.404Z,99.12
2024-01-24T11:13:56.216Z,99.35
2024-01-24T11:19:23.144Z,99.23
2024-01-24T11:24:51.782Z,99.55
2024-01-24T11:30:02.495Z,99.83
2024-01-24T11:35:44.171Z,100.00
2024-01-24T11:40:55.149Z,99.99
2024-01-24T11:46:10.144Z,99.98
2024-01-24T11:51:19.474Z,99.95
2024-01-24T11:56:27.502Z,99.47
2024-01-24T12:01:35.098Z,99.48
2024-01-24T12:06:43.361Z,99.50
2024-01-24T12:11:50.901Z,99.17
2024-01-24T12:16:58.769Z,99.51
2024-01-24T12:22:10.597Z,99.66
2024-01-24T12:27:18.573Z,99.98
2024-01-24T12:32:26.582Z,99.48
2024-01-24T12:37:34.298Z,98.42
2024-01-24T12:42:42.963Z,96.80
2024-01-24T12:47:50.654Z,95.07
2024-01-24T12:52:58.446Z,92.39
2024-01-24T12:58:08.408Z,91.43
2024-01-24T13:03:20.678Z,90.85
2024-01-24T13:08:30.791Z,91.02
2024-01-24T13:13:40.677Z,89.79
2024-01-24T13:18:48.513Z,89.75
2024-01-24T13:24:03.378Z,89.09
2024-01-24T13:29:10.868Z,87.22
2024-01-24T13:34:20.055Z,86.85
2024-01-24T13:39:27.909Z,86.34
2024-01-24T13:44:36.584Z,86.10
2024-01-24T13:49:46.059Z,84.90
2024-01-24T13:54:54.300Z,83.15
2024-01-24T14:00:01.881Z,83.24
2024-01-24T14:05:12.450Z,81.93
2024-01-24T14:10:20.091Z,80.95
2024-01-24T14:15:34.054Z,80.82
2024-01-24T14:20:45.267Z,80.80
2024-01-24T14:25:52.786Z,81.98
2024-01-24T14:31:00.133Z,84.41
2024-01-24T14:36:11.671Z,86.63
2024-01-24T14:41:19.490Z,89.18
2024-01-24T14:46:27.544Z,89.44
2024-01-24T14:51:34.986Z,88.25
2024-01-24T14:56:45.399Z,88.95
2024-01-24T15:01:58.003Z,88.61
2024-01-24T15:07:05.959Z,88.60
2024-01-24T15:12:14.027Z,88.06
2024-01-24T15:17:21.487Z,87.53
2024-01-24T15:22:28.972Z,87.97
2024-01-24T15:27:36.748Z,88.12
2024-01-24T15:32:44.497Z,87.98
2024-01-24T15:37:52.380Z,87.99
2024-01-24T15:43:01.291Z,87.93
2024-01-24T15:48:09.901Z,87.43
2024-01-24T15:53:17.953Z,87.33
2024-01-24T15:58:25.837Z,87.13
2024-01-24T16:03:35.447Z,86.85
2024-01-24T16:08:42.925Z,86.94
2024-01-24T16:13:53.839Z,86.71
2024-01-24T16:19:01.926Z,86.74
2024-01-24T16:24:10.144Z,87.03
2024-01-24T16:29:17.749Z,87.39
2024-01-24T16:34:25.561Z,87.94
2024-01-24T16:39:33.208Z,87.95
2024-01-24T16:44:40.796Z,88.80
2024-01-24T16:49:48.331Z,88.80
2024-01-24T16:54:56.027Z,89.30
2024-01-24T17:00:04.126Z,90.37
2024-01-24T17:05:12.544Z,90.25
2024-01-24T17:10:20.816Z,91.12
2024-01-24T17:15:28.427Z,91.24
2024-01-24T17:20:35.680Z,91.57
2024-01-24T17:25:43.153Z,92.13
2024-01-24T17:30:53.820Z,91.84
2024-01-24T17:41:25.564Z,91.82
2024-01-24T17:46:33.331Z,91.16
2024-01-24T17:51:41.150Z,90.62
2024-01-24T17:56:48.678Z,90.20
2024-01-24T18:01:57.800Z,89.73
2024-01-24T18:07:06.838Z,89.19
2024-01-24T18:12:14.252Z,88.31
2024-01-24T18:17:22.011Z,86.61
2024-01-24T18:22:29.421Z,86.22
2024-01-24T18:27:37.187Z,85.45
2024-01-24T18:32:46.888Z,84.82
2024-01-24T18:37:54.580Z,83.97
2024-01-24T18:43:03.575Z,82.85
2024-01-24T18:48:12.149Z,81.48
2024-01-24T18:53:19.727Z,80.55
2024-01-24T18:58:30.667Z,79.56
2024-01-24T19:03:38.833Z,79.69
2024-01-24T19:08:47.072Z,79.49
2024-01-24T19:13:54.690Z,79.72
2024-01-24T19:19:06.034Z,79.43
2024-01-24T19:24:14.647Z,79.57
2024-01-24T19:29:23.172Z,78.91
2024-01-24T19:34:31.042Z,78.10
2024-01-24T19:39:38.658Z,78.13
2024-01-24T19:44:46.832Z,77.68
2024-01-24T19:49:54.509Z,77.84
2024-01-24T19:55:04.697Z,77.15
2024-01-24T20:00:14.211Z,78.15
2024-01-24T20:05:21.818Z,78.31
2024-01-24T20:10:29.137Z,77.80
2024-01-24T20:15:37.064Z,77.39
2024-01-24T20:20:45.100Z,76.73
2024-01-24T20:25:52.909Z,75.83
2024-01-24T20:31:00.484Z,75.20
2024-01-24T20:36:11.035Z,75.37
2024-01-24T20:41:18.726Z,74.32
2024-01-24T20:46:26.377Z,73.82
2024-01-24T20:51:34.064Z,73.42
2024-01-24T20:56:41.620Z,72.76
2024-01-24T21:01:49.352Z,72.84
2024-01-24T21:06:57.675Z,73.20
2024-01-24T21:12:08.412Z,73.44
2024-01-24T21:17:15.740Z,73.26
2024-01-24T21:22:23.657Z,73.46
2024-01-24T21:27:32.976Z,73.23
2024-01-24T21:32:40.570Z,73.66
2024-01-24T21:40:35.994Z,74.00
2024-01-24T21:45:43.731Z,74.33
2024-01-24T21:50:51.775Z,74.68
2024-01-24T21:55:59.136Z,74.93
2024-01-24T22:01:07.501Z,75.30
2024-01-24T22:06:16.159Z,75.50
2024-01-24T22:11:24.293Z,75.95
2024-01-24T22:16:31.825Z,76.63
2024-01-24T22:21:43.425Z,77.25
2024-01-24T22:26:52.065Z,78.23
2024-01-24T22:32:00.589Z,78.17
2024-01-24T22:37:08.687Z,79.93
2024-01-24T22:42:16.661Z,80.71
2024-01-24T22:47:23.983Z,80.69
2024-01-24T22:52:31.676Z,80.26
2024-01-24T22:57:39.721Z,79.87
2024-01-24T23:02:47.953Z,79.20
2024-01-24T23:07:55.765Z,79.40
2024-01-24T23:13:03.456Z,77.05
2024-01-24T23:18:11.236Z,75.94
2024-01-24T23:23:18.931Z,75.40
2024-01-24T23:28:26.581Z,74.83
2024-01-24T23:33:36.100Z,74.67
2024-01-24T23:38:44.272Z,74.70
2024-01-24T23:43:52.784Z,74.89
2024-01-24T23:49:00.552Z,74.93
2024-01-24T23:54:10.361Z,75.14
2024-01-24T23:59:17.693Z,75.63
